createdAt,value
2019-02-12T00:03:00.442Z,80.46
2019-02-12T00:05:50.777Z,80.80
2019-02-12T00:08:54.181Z,81.16
2019-02-12T00:11:36.914Z,81.36
2019-02-12T00:14:19.588Z,81.48
2019-02-12T00:17:09.960Z,81.75
2019-02-12T00:19:53.019Z,82.11
2019-02-12T00:22:43.437Z,82.37
2019-02-12T00:25:26.093Z,82.47
2019-02-12T00:28:16.456Z,82.52
2019-02-12T00:30:59.443Z,82.50
2019-02-12T00:33:49.839Z,82.71
2019-02-12T00:36:33.159Z,82.83
2019-02-12T00:39:23.532Z,82.78
2019-02-12T00:42:06.375Z,82.72
2019-02-12T00:44:56.748Z,82.88
2019-02-12T00:47:40.170Z,82.91
2019-02-12T00:50:30.554Z,82.88
2019-02-12T00:53:13.372Z,82.93
2019-02-12T00:56:04.362Z,83.10
2019-02-12T00:58:47.764Z,83.30
2019-02-12T01:01:38.134Z,83.13
2019-02-12T01:04:21.504Z,83.46
2019-02-12T01:07:11.867Z,83.76
2019-02-12T01:09:54.456Z,83.87
2019-02-12T01:12:37.301Z,84.16
2019-02-12T01:15:27.639Z,84.19
2019-02-12T01:18:09.177Z,84.20
2019-02-12T01:20:59.571Z,83.86
2019-02-12T01:23:42.380Z,83.85
2019-02-12T01:26:32.791Z,83.98
2019-02-12T01:29:15.401Z,83.82
2019-02-12T01:32:05.758Z,83.85
2019-02-12T01:34:48.418Z,83.99
2019-02-12T01:37:38.787Z,84.06
2019-02-12T01:40:22.385Z,84.23
2019-02-12T01:43:12.764Z,84.00
2019-02-12T01:45:56.081Z,84.04
2019-02-12T01:48:46.451Z,84.05
2019-02-12T01:51:35.043Z,83.96
2019-02-12T01:54:21.962Z,83.81
2019-02-12T01:57:04.764Z,83.77
2019-02-12T01:59:55.234Z,83.75
2019-02-12T02:02:37.935Z,83.76
2019-02-12T02:05:28.297Z,83.87
2019-02-12T02:08:11.714Z,84.07
2019-02-12T02:11:02.104Z,83.24
2019-02-12T02:13:44.691Z,83.21
2019-02-12T02:16:35.035Z,83.26
2019-02-12T02:19:18.299Z,83.31
2019-02-12T02:22:08.734Z,83.39
2019-02-12T02:24:52.132Z,83.61
2019-02-12T02:27:42.565Z,83.51
2019-02-12T02:30:25.555Z,83.24
2019-02-12T02:33:15.929Z,83.44
2019-02-12T02:35:58.531Z,83.42
2019-02-12T02:38:48.900Z,83.39
2019-02-12T02:41:32.116Z,83.64
2019-02-12T02:44:22.531Z,84.00
2019-02-12T02:47:05.889Z,83.97
2019-02-12T02:49:56.270Z,84.42
2019-02-12T02:52:38.921Z,84.49
2019-02-12T02:55:29.338Z,84.70
2019-02-12T02:58:12.368Z,84.87
2019-02-12T03:01:02.740Z,85.09
2019-02-12T03:03:46.268Z,85.44
2019-02-12T03:06:36.663Z,85.66
2019-02-12T03:09:19.227Z,85.74
2019-02-12T03:12:09.629Z,85.93
2019-02-12T03:14:52.286Z,86.19
2019-02-12T03:17:42.668Z,86.48
2019-02-12T03:20:25.228Z,86.82
2019-02-12T03:23:15.581Z,86.69
2019-02-12T03:25:58.187Z,86.77
2019-02-12T03:28:48.573Z,86.82
2019-02-12T03:31:31.562Z,86.74
2019-02-12T03:34:25.769Z,86.69
2019-02-12T03:37:28.882Z,86.90
2019-02-12T03:40:19.261Z,87.08
2019-02-12T03:43:02.521Z,87.33
2019-02-12T03:45:53.788Z,87.32
2019-02-12T03:48:37.183Z,86.81
2019-02-12T03:51:27.590Z,86.76
2019-02-12T03:54:10.085Z,86.66
2019-02-12T03:57:19.311Z,86.88
2019-02-12T04:00:00.899Z,86.84
2019-02-12T04:03:02.792Z,87.21
2019-02-12T04:05:53.174Z,87.63
2019-02-12T04:08:36.635Z,86.91
2019-02-12T04:11:26.985Z,87.49
2019-02-12T04:14:09.591Z,87.91
2019-02-12T04:16:59.940Z,88.26
2019-02-12T04:19:43.042Z,87.63
2019-02-12T04:22:33.425Z,88.09
2019-02-12T04:25:16.059Z,87.95
2019-02-12T04:28:06.413Z,88.33
2019-02-12T04:30:49.072Z,87.94
2019-02-12T04:33:39.405Z,88.42
2019-02-12T04:39:38.844Z,88.75
2019-02-12T04:42:22.321Z,89.29
2019-02-12T04:45:12.694Z,89.40
2019-02-12T04:47:55.583Z,89.73
2019-02-12T04:50:45.926Z,89.82
2019-02-12T04:53:29.198Z,89.95
2019-02-12T04:56:19.550Z,90.19
2019-02-12T04:59:02.920Z,89.58
2019-02-12T05:01:53.301Z,89.71
2019-02-12T05:04:36.856Z,89.75
2019-02-12T05:07:27.209Z,89.79
2019-02-12T05:10:11.346Z,89.93
2019-02-12T05:13:01.741Z,89.89
2019-02-12T05:15:44.993Z,89.67
2019-02-12T05:18:35.346Z,89.43
2019-02-12T05:21:17.956Z,89.63
2019-02-12T05:24:08.382Z,90.16
2019-02-12T05:26:51.049Z,89.74
2019-02-12T05:29:41.379Z,89.95
2019-02-12T05:32:24.040Z,90.09
2019-02-12T05:35:06.974Z,90.25
2019-02-12T05:37:57.375Z,90.63
2019-02-12T05:41:00.160Z,90.24
2019-02-12T05:43:50.502Z,90.23
2019-02-12T05:46:33.954Z,90.16
2019-02-12T05:49:24.357Z,90.61
2019-02-12T05:52:08.097Z,90.46
2019-02-12T05:54:58.495Z,90.23
2019-02-12T05:57:41.222Z,90.41
2019-02-12T06:00:26.547Z,90.27
2019-02-12T06:03:16.889Z,90.55
2019-02-12T06:06:00.479Z,90.35
2019-02-12T06:08:50.875Z,90.44
2019-02-12T06:11:34.076Z,90.53
2019-02-12T06:14:24.454Z,90.21
2019-02-12T06:17:07.700Z,90.26
2019-02-12T06:19:58.066Z,89.68
2019-02-12T06:22:48.425Z,89.48
2019-02-12T06:25:31.327Z,90.07
2019-02-12T06:28:21.753Z,90.69
2019-02-12T06:31:04.979Z,90.98
2019-02-12T06:33:55.345Z,90.93
2019-02-12T06:36:37.906Z,89.83
2019-02-12T06:39:28.299Z,89.58
2019-02-12T06:42:11.130Z,89.43
2019-02-12T06:44:53.785Z,89.80
2019-02-12T06:51:11.679Z,88.77
2019-02-12T06:54:02.092Z,89.18
2019-02-12T06:56:52.486Z,89.01
2019-02-12T06:59:35.224Z,89.24
2019-02-12T07:03:03.679Z,89.56
2019-02-12T07:05:48.424Z,89.31
2019-02-12T07:09:16.844Z,89.32
2019-02-12T07:12:18.716Z,89.63
2019-02-12T07:15:30.328Z,89.80
2019-02-12T07:18:58.756Z,89.65
2019-02-12T07:21:47.599Z,88.74
2019-02-12T07:25:16.041Z,88.41
2019-02-12T07:28:29.245Z,87.24
2019-02-12T07:31:57.687Z,86.79
2019-02-12T07:34:42.845Z,87.54
2019-02-12T07:37:49.807Z,87.48
2019-02-12T07:40:51.462Z,87.48
2019-02-12T07:44:19.874Z,87.97
2019-02-12T07:47:21.835Z,88.52
2019-02-12T07:50:50.271Z,87.50
2019-02-12T07:53:55.211Z,87.55
2019-02-12T07:57:05.725Z,87.62
2019-02-12T07:59:57.062Z,87.43
2019-02-12T08:03:21.955Z,87.43
2019-02-12T08:06:40.418Z,87.27
2019-02-12T08:09:59.792Z,85.20
2019-02-12T08:13:28.289Z,84.93
2019-02-12T08:16:40.719Z,84.55
2019-02-12T08:19:27.845Z,85.44
2019-02-12T08:22:56.244Z,85.77
2019-02-12T08:25:57.928Z,86.20
2019-02-12T08:29:23.993Z,85.84
2019-02-12T08:32:17.966Z,86.30
2019-02-12T08:35:46.379Z,87.16
2019-02-12T08:38:48.975Z,87.12
2019-02-12T08:42:17.435Z,87.07
2019-02-12T08:45:05.685Z,85.66
2019-02-12T08:48:24.489Z,84.75
2019-02-12T08:51:52.931Z,84.76
2019-02-12T08:54:47.416Z,86.13
2019-02-12T08:58:01.077Z,85.74
2019-02-12T09:00:47.631Z,85.75
2019-02-12T09:04:16.116Z,84.93
2019-02-12T09:07:24.572Z,84.34
2019-02-12T09:10:53.017Z,85.19
2019-02-12T09:13:41.686Z,85.91
2019-02-12T09:17:10.145Z,86.46
2019-02-12T09:19:55.996Z,86.50
2019-02-12T09:23:21.302Z,86.47
2019-02-12T09:26:23.487Z,85.39
2019-02-12T09:29:51.943Z,84.80
2019-02-12T09:32:53.891Z,84.58
2019-02-12T09:36:22.299Z,83.71
2019-02-12T09:39:24.684Z,84.01
2019-02-12T09:42:53.123Z,84.99
2019-02-12T09:46:01.418Z,84.75
2019-02-12T09:49:29.839Z,84.14
2019-02-12T09:52:19.278Z,83.63
2019-02-12T09:55:40.779Z,84.77
2019-02-12T09:58:54.498Z,83.79
2019-02-12T10:01:44.024Z,84.02
2019-02-12T10:05:12.475Z,82.65
2019-02-12T10:08:14.234Z,82.61
2019-02-12T10:11:30.703Z,81.62
2019-02-12T10:14:35.831Z,80.16
2019-02-12T10:18:04.202Z,79.31
2019-02-12T10:20:51.147Z,76.51
2019-02-12T10:24:05.062Z,75.55
2019-02-12T10:26:53.875Z,74.86
2019-02-12T10:30:17.443Z,74.16
2019-02-12T10:33:00.701Z,71.47
2019-02-12T10:35:51.064Z,71.43
2019-02-12T10:38:33.629Z,69.90
2019-02-12T10:41:23.978Z,68.01
2019-02-12T10:44:06.504Z,65.73
2019-02-12T10:46:56.914Z,61.90
2019-02-12T10:49:39.816Z,58.99
2019-02-12T10:52:30.232Z,56.59
2019-02-12T10:55:12.970Z,56.71
2019-02-12T10:58:22.200Z,56.37
2019-02-12T11:01:05.772Z,55.53
2019-02-12T11:03:56.168Z,55.98
2019-02-12T11:06:38.938Z,55.27
2019-02-12T11:12:56.448Z,54.95
2019-02-12T11:15:46.847Z,55.53
2019-02-12T11:18:37.191Z,54.78
2019-02-12T11:21:19.784Z,55.24
2019-02-12T11:24:10.160Z,53.89
2019-02-12T11:26:53.507Z,51.02
2019-02-12T11:29:43.903Z,51.31
2019-02-12T11:32:26.449Z,50.79
2019-02-12T11:35:16.820Z,50.80
2019-02-12T11:37:59.852Z,50.54
2019-02-12T11:40:50.248Z,50.31
2019-02-12T11:43:33.336Z,50.25
2019-02-12T11:46:23.677Z,52.00
2019-02-12T11:49:07.103Z,52.43
2019-02-12T11:51:57.481Z,53.36
2019-02-12T11:54:43.673Z,54.15
2019-02-12T11:57:32.157Z,55.60
2019-02-12T12:03:20.393Z,55.43
2019-02-12T12:06:10.786Z,56.16
2019-02-12T12:08:53.579Z,57.18
2019-02-12T12:11:43.922Z,57.50
2019-02-12T12:14:26.809Z,56.67
2019-02-12T12:17:17.195Z,58.08
2019-02-12T12:20:00.471Z,58.85
2019-02-12T12:22:50.863Z,59.43
2019-02-12T12:25:34.341Z,59.64
2019-02-12T12:28:24.745Z,61.64
2019-02-12T12:31:08.123Z,62.51
2019-02-12T12:33:58.487Z,60.76
2019-02-12T12:36:41.654Z,61.67
2019-02-12T12:39:32.018Z,61.95
2019-02-12T12:42:15.197Z,63.03
2019-02-12T12:45:06.371Z,63.24
2019-02-12T12:47:56.718Z,64.16
2019-02-12T12:50:39.293Z,64.45
2019-02-12T12:53:29.683Z,64.52
2019-02-12T12:56:13.158Z,64.72
2019-02-12T12:59:03.511Z,65.04
2019-02-12T13:01:46.197Z,63.64
2019-02-12T13:04:28.732Z,64.70
2019-02-12T13:07:19.116Z,64.90
2019-02-12T13:10:02.112Z,64.39
2019-02-12T13:12:52.478Z,65.60
2019-02-12T13:15:35.445Z,65.07
2019-02-12T13:18:25.822Z,65.11
2019-02-12T13:21:16.452Z,64.34
2019-02-12T13:24:06.800Z,64.28
2019-02-12T13:26:49.491Z,63.85
2019-02-12T13:29:39.973Z,63.31
2019-02-12T13:32:23.222Z,63.19
2019-02-12T13:38:42.299Z,62.26
2019-02-12T13:41:32.657Z,62.30
2019-02-12T13:44:15.828Z,62.99
2019-02-12T13:46:58.577Z,62.42
2019-02-12T13:49:48.940Z,62.00
2019-02-12T13:52:31.837Z,61.17
2019-02-12T13:55:22.715Z,60.67
2019-02-12T13:58:26.733Z,60.46
2019-02-12T14:01:17.047Z,60.63
2019-02-12T14:04:00.354Z,60.84
2019-02-12T14:06:50.688Z,59.83
2019-02-12T14:09:34.182Z,60.22
2019-02-12T14:12:24.566Z,60.54
2019-02-12T14:15:08.476Z,60.49
2019-02-12T14:17:58.838Z,60.90
2019-02-12T14:20:41.449Z,59.93
2019-02-12T14:23:31.825Z,59.03
2019-02-12T14:26:15.032Z,58.34
2019-02-12T14:29:05.431Z,57.45
2019-02-12T14:31:53.035Z,56.12
2019-02-12T14:34:40.942Z,53.49
2019-02-12T14:37:24.380Z,52.46
2019-02-12T14:43:32.237Z,52.58
2019-02-12T14:46:22.591Z,52.44
2019-02-12T14:49:12.986Z,53.70
2019-02-12T14:51:55.741Z,53.30
2019-02-12T14:54:38.378Z,53.57
2019-02-12T14:57:28.753Z,53.66
2019-02-12T15:00:12.785Z,54.05
2019-02-12T15:03:03.218Z,54.25
2019-02-12T15:05:46.737Z,54.26
2019-02-12T15:08:37.136Z,54.50
2019-02-12T15:11:21.345Z,55.44
2019-02-12T15:14:11.722Z,55.99
2019-02-12T15:16:55.005Z,55.58
2019-02-12T15:19:45.415Z,55.44
2019-02-12T15:22:28.055Z,56.15
2019-02-12T15:25:18.406Z,56.45
2019-02-12T15:28:01.727Z,56.43
2019-02-12T15:30:52.112Z,56.77
2019-02-12T15:33:35.373Z,57.37
2019-02-12T15:36:25.816Z,57.37
2019-02-12T15:39:09.010Z,57.42
2019-02-12T15:41:59.417Z,58.35
2019-02-12T15:44:42.708Z,60.30
2019-02-12T15:47:25.508Z,60.28
2019-02-12T15:50:15.873Z,61.41
2019-02-12T15:52:58.415Z,61.68
2019-02-12T15:55:51.270Z,62.30
2019-02-12T15:58:53.725Z,63.29
2019-02-12T16:01:44.067Z,64.37
2019-02-12T16:04:27.427Z,65.03
2019-02-12T16:07:17.862Z,65.37
2019-02-12T16:10:01.451Z,66.12
2019-02-12T16:12:51.836Z,66.35
2019-02-12T16:15:35.363Z,66.71
2019-02-12T16:18:20.642Z,67.46
2019-02-12T16:21:10.790Z,67.68
2019-02-12T16:23:54.178Z,68.19
2019-02-12T16:26:44.557Z,68.78
2019-02-12T16:29:27.941Z,69.23
2019-02-12T16:32:18.403Z,68.93
2019-02-12T16:35:01.922Z,69.65
2019-02-12T16:37:52.315Z,69.82
2019-02-12T16:40:35.504Z,70.01
2019-02-12T16:43:25.892Z,70.63
2019-02-12T16:46:11.097Z,70.86
2019-02-12T16:49:01.469Z,71.30
2019-02-12T16:51:44.573Z,71.57
2019-02-12T16:54:34.979Z,72.28
2019-02-12T16:57:17.839Z,72.60
2019-02-12T17:00:30.744Z,72.83
2019-02-12T17:03:13.756Z,73.13
2019-02-12T17:05:56.677Z,72.93
2019-02-12T17:08:47.096Z,73.40
2019-02-12T17:11:29.627Z,74.02
2019-02-12T17:14:20.014Z,74.20
2019-02-12T17:17:02.626Z,74.69
2019-02-12T17:19:53.024Z,74.94
2019-02-12T17:22:43.404Z,75.81
2019-02-12T17:25:26.196Z,76.15
2019-02-12T17:28:16.647Z,75.10
2019-02-12T17:31:00.000Z,75.91
2019-02-12T17:33:50.381Z,76.66
2019-02-12T17:36:33.614Z,76.32
2019-02-12T17:39:16.761Z,76.83
2019-02-12T17:42:07.124Z,77.47
2019-02-12T17:44:49.866Z,77.46
2019-02-12T17:47:40.306Z,77.42
2019-02-12T17:50:12.609Z,77.79
2019-02-12T17:53:02.950Z,78.21
2019-02-12T17:55:53.428Z,78.19
2019-02-12T17:58:24.695Z,78.21
2019-02-12T18:01:15.062Z,78.26
2019-02-12T18:03:57.952Z,78.64
2019-02-12T18:06:48.347Z,78.68
2019-02-12T18:09:31.343Z,79.08
2019-02-12T18:12:21.726Z,79.15
2019-02-12T18:15:05.074Z,78.90
2019-02-12T18:17:55.464Z,79.33
2019-02-12T18:20:38.962Z,79.72
2019-02-12T18:26:37.529Z,79.24
2019-02-12T18:29:27.895Z,78.91
2019-02-12T18:32:10.626Z,78.79
2019-02-12T18:35:00.984Z,79.03
2019-02-12T18:37:44.404Z,79.33
2019-02-12T18:40:28.491Z,79.30
2019-02-12T18:43:18.896Z,79.29
2019-02-12T18:46:02.094Z,79.62
2019-02-12T18:48:52.497Z,79.86
2019-02-12T18:51:35.990Z,79.68
2019-02-12T18:54:26.379Z,79.10
2019-02-12T18:57:09.786Z,79.08
2019-02-12T19:00:00.224Z,79.32
2019-02-12T19:02:43.414Z,80.00
2019-02-12T19:05:33.747Z,79.89
2019-02-12T19:08:16.585Z,79.50
2019-02-12T19:11:06.943Z,79.65
2019-02-12T19:13:50.017Z,79.56
2019-02-12T19:16:40.471Z,79.20
2019-02-12T19:19:23.609Z,79.42
2019-02-12T19:22:14.054Z,79.37
2019-02-12T19:24:56.832Z,79.21
2019-02-12T19:27:47.176Z,79.39
2019-02-12T19:30:29.771Z,79.77
2019-02-12T19:33:20.123Z,79.04
2019-02-12T19:36:03.708Z,78.27
2019-02-12T19:38:54.077Z,78.49
2019-02-12T19:41:37.101Z,78.20
2019-02-12T19:44:27.465Z,78.58
2019-02-12T19:47:10.082Z,78.52
2019-02-12T19:50:00.484Z,78.72
2019-02-12T19:52:44.015Z,78.74
2019-02-12T19:55:34.467Z,78.00
2019-02-12T19:58:17.885Z,78.24
2019-02-12T20:01:08.327Z,79.11
2019-02-12T20:03:51.761Z,78.78
2019-02-12T20:06:42.200Z,78.28
2019-02-12T20:09:25.440Z,78.69
2019-02-12T20:12:15.867Z,78.70
2019-02-12T20:15:18.361Z,78.15
2019-02-12T20:18:08.787Z,78.50
2019-02-12T20:20:52.269Z,78.59
2019-02-12T20:23:42.686Z,78.67
2019-02-12T20:26:25.434Z,78.67
2019-02-12T20:29:34.690Z,78.96
2019-02-12T20:32:18.039Z,78.49
2019-02-12T20:35:09.060Z,79.69
2019-02-12T20:38:11.810Z,79.49
2019-02-12T20:41:02.185Z,78.07
2019-02-12T20:43:44.279Z,78.07
2019-02-12T20:46:25.092Z,78.45
2019-02-12T20:49:15.426Z,78.76
2019-02-12T20:51:58.020Z,78.82
2019-02-12T20:54:48.496Z,79.20
2019-02-12T20:57:31.739Z,79.45
2019-02-12T21:03:38.216Z,79.24
2019-02-12T21:06:21.427Z,79.33
2019-02-12T21:09:11.865Z,79.46
2019-02-12T21:11:54.584Z,79.40
2019-02-12T21:14:44.987Z,79.42
2019-02-12T21:17:27.936Z,79.70
2019-02-12T21:20:18.351Z,79.95
2019-02-12T21:26:11.255Z,79.07
2019-02-12T21:29:01.669Z,79.59
2019-02-12T21:31:45.011Z,79.37
2019-02-12T21:34:35.419Z,79.45
2019-02-12T21:37:18.475Z,78.91
2019-02-12T21:40:12.161Z,78.96
2019-02-12T21:42:55.170Z,79.15
2019-02-12T21:45:45.602Z,78.60
2019-02-12T21:48:28.166Z,78.58
2019-02-12T21:51:18.548Z,78.83
2019-02-12T21:54:01.105Z,78.85
2019-02-12T21:56:51.485Z,78.71
2019-02-12T21:59:34.764Z,78.80
2019-02-12T22:02:25.171Z,78.28
2019-02-12T22:05:08.669Z,78.50
2019-02-12T22:07:51.392Z,78.42
2019-02-12T22:10:46.402Z,78.90
2019-02-12T22:13:46.513Z,78.77
2019-02-12T22:16:36.883Z,78.44
2019-02-12T22:19:19.497Z,78.07
2019-02-12T22:22:09.915Z,77.20
2019-02-12T22:24:53.249Z,77.59
2019-02-12T22:27:43.609Z,77.58
2019-02-12T22:30:26.886Z,77.50
2019-02-12T22:33:17.260Z,77.40
2019-02-12T22:35:59.803Z,77.60
2019-02-12T22:38:50.144Z,77.95
2019-02-12T22:41:33.564Z,77.70
2019-02-12T22:44:23.835Z,77.56
2019-02-12T22:47:06.558Z,77.56
2019-02-12T22:49:56.929Z,77.88
2019-02-12T22:52:39.716Z,77.53
2019-02-12T22:55:30.073Z,77.61
2019-02-12T22:58:13.433Z,77.58
2019-02-12T23:04:53.411Z,78.08
2019-02-12T23:07:43.748Z,77.81
2019-02-12T23:10:26.713Z,77.90
2019-02-12T23:13:17.097Z,77.80
2019-02-12T23:16:00.480Z,77.46
2019-02-12T23:18:50.856Z,78.00
2019-02-12T23:21:34.233Z,77.84
2019-02-12T23:24:24.612Z,78.19
2019-02-12T23:27:07.562Z,78.60
2019-02-12T23:29:57.957Z,78.76
2019-02-12T23:32:40.451Z,78.97
2019-02-12T23:35:30.908Z,78.55
2019-02-12T23:38:13.459Z,78.00
2019-02-12T23:41:03.844Z,78.19
2019-02-12T23:43:47.174Z,78.13
2019-02-12T23:46:37.507Z,78.16
2019-02-12T23:49:20.698Z,78.41
2019-02-12T23:52:11.084Z,77.97
2019-02-12T23:54:54.299Z,78.21
2019-02-12T23:57:44.630Z,78.48
